This is the latest recevied weather packets stored in our database for station/object HS1WDC-1. If no packets are shown the sender has not sent any weather packets the latest 10 day(s).
| Time | Temp. | Humidity | Pressure | Rain* | Wind** | Luminosity | Snow |
|---|---|---|---|---|---|---|---|
| 1777755327 | 34.44° C | 57% | 1006 hPa | - | - | 0 W/m² | - |
| 1777754403 | 33.89° C | 59% | 1006 hPa | - | - | 0 W/m² | - |
| 1777753478 | 33.89° C | 59% | 1006 hPa | - | - | 0 W/m² | - |
| 1777751358 | 35° C | 55% | 1006 hPa | - | - | 0 W/m² | - |
| 1777750434 | 35° C | 56% | 1006 hPa | - | - | 0 W/m² | - |
| 1777749509 | 34.44° C | 57% | 1006 hPa | - | - | 0 W/m² | - |
| 1777748585 | 35° C | 55% | 1006 hPa | - | - | 0 W/m² | - |
| 1777747661 | 35° C | 55% | 1006 hPa | - | - | 0 W/m² | - |
| 1777746736 | 34.44° C | 55% | 1006 hPa | - | - | 0 W/m² | - |
| 1777745812 | 35° C | 54% | 1007 hPa | - | - | 0 W/m² | - |
| 1777744888 | 35.56° C | 52% | 1007 hPa | - | - | 0 W/m² | - |
| 1777743964 | 35° C | 53% | 1007 hPa | - | - | 0 W/m² | - |
| 1777743039 | 35.56° C | 51% | 1007 hPa | - | - | 0 W/m² | - |
| 1777742115 | 35.56° C | 50% | 1007 hPa | - | - | 0 W/m² | - |
| 1777741191 | 36.11° C | 50% | 1007 hPa | - | - | 0 W/m² | - |
| 1777740266 | 35.56° C | 49% | 1008 hPa | - | - | 0 W/m² | - |
| 1777739342 | 36.67° C | 47% | 1008 hPa | - | - | 0 W/m² | - |
| 1777738417 | 36.67° C | 46% | 1008 hPa | - | - | 0 W/m² | - |
| 1777737493 | 36.11° C | 46% | 1008 hPa | - | - | 0 W/m² | - |
| 1777736569 | 36.67° C | 45% | 1008 hPa | - | - | 0 W/m² | - |
| 1777735644 | 36.67° C | 45% | 1008 hPa | - | - | 0 W/m² | - |
| 1777734720 | 36.67° C | 44% | 1008 hPa | - | - | 0 W/m² | - |
| 1777733795 | 37.22° C | 44% | 1008 hPa | - | - | 0 W/m² | - |
| 1777732871 | 37.22° C | 44% | 1007 hPa | - | - | 0 W/m² | - |
| 1777731946 | 37.22° C | 44% | 1007 hPa | - | - | 0 W/m² | - |
* Rain since midnight (hover to see other rain measurements)
** Current wind speed in m/s (hover to see current wind gust speed)